Time;durP1;ratioP1;P1;durP2;ratioP2;P2;SDS_P1;SDS_P2;PMS_P1;PMS_P2;Temp;Humidity;BMP_temperature;BMP_pressure;BME280_temperature;BME280_humidity;BME280_pressure;Samples;Min_cycle;Max_cycle;Signal;HPM_P1;HPM_P2
2021/07/21 00:00:23;;;;;;;3.03;2.47;;;25.50;41.10;;;;;;5050306;28;20017;-59
2021/07/21 00:02:49;;;;;;;2.85;2.35;;;25.50;41.10;;;;;;5032989;28;20025;-57
2021/07/21 00:05:17;;;;;;;2.80;2.60;;;25.50;41.20;;;;;;5053044;28;20029;-59
2021/07/21 00:07:43;;;;;;;3.00;2.53;;;25.50;41.30;;;;;;5051620;28;20480;-56
2021/07/21 00:10:10;;;;;;;3.42;2.70;;;25.50;41.30;;;;;;5051192;28;20060;-59
2021/07/21 00:15:24;;;;;;;3.22;2.58;;;25.40;41.40;;;;;;5050016;28;20065;-55
2021/07/21 00:17:59;;;;;;;3.05;2.75;;;25.40;41.50;;;;;;5047957;28;20098;-57
2021/07/21 00:20:26;;;;;;;2.85;2.45;;;25.40;41.50;;;;;;5049046;28;20025;-58
2021/07/21 00:22:53;;;;;;;3.05;2.70;;;25.40;41.60;;;;;;5051524;28;20047;-60
2021/07/21 00:25:19;;;;;;;3.67;2.72;;;25.40;41.70;;;;;;5049105;28;20029;-57
2021/07/21 00:27:45;;;;;;;3.15;2.53;;;25.40;42.30;;;;;;5047302;28;20041;-57
2021/07/21 00:30:15;;;;;;;3.55;2.85;;;25.40;41.80;;;;;;5050310;28;20029;-60
2021/07/21 00:32:41;;;;;;;3.15;2.78;;;25.40;41.80;;;;;;5047448;28;20029;-59
2021/07/21 00:35:10;;;;;;;2.38;2.13;;;25.40;41.90;;;;;;5048494;28;20017;-59
2021/07/21 00:37:37;;;;;;;3.10;2.65;;;25.40;42.00;;;;;;5051395;28;20029;-57
2021/07/21 00:40:11;;;;;;;4.00;2.85;;;25.40;42.00;;;;;;5051459;28;20092;-53
2021/07/21 00:42:38;;;;;;;3.03;2.40;;;25.40;42.00;;;;;;5031207;28;20028;-59
2021/07/21 00:45:05;;;;;;;3.55;2.65;;;25.30;42.00;;;;;;5047556;28;20020;-56
2021/07/21 00:47:31;;;;;;;3.00;2.47;;;25.40;42.20;;;;;;5031719;28;20041;-58
2021/07/21 00:49:58;;;;;;;3.42;2.65;;;25.30;42.10;;;;;;5030732;28;20056;-58
2021/07/21 00:52:23;;;;;;;2.92;2.53;;;25.30;42.10;;;;;;5047819;28;20441;-60
2021/07/21 00:54:50;;;;;;;3.33;2.70;;;25.30;42.20;;;;;;5048845;28;20475;-58
2021/07/21 00:57:17;;;;;;;3.50;2.80;;;25.30;42.20;;;;;;5032121;28;20060;-60
2021/07/21 00:59:43;;;;;;;2.50;2.25;;;25.30;42.30;;;;;;5032910;28;20029;-56
2021/07/21 01:02:09;;;;;;;3.75;2.70;;;25.30;42.30;;;;;;5033732;28;20017;-57
2021/07/21 01:04:38;;;;;;;3.00;2.70;;;25.30;42.30;;;;;;5032582;28;20479;-60
2021/07/21 01:07:06;;;;;;;3.95;2.97;;;25.30;42.40;;;;;;5049799;28;20052;-58
2021/07/21 01:09:35;;;;;;;2.90;2.60;;;25.30;42.40;;;;;;5033768;28;20032;-57
2021/07/21 01:12:23;;;;;;;3.20;2.88;;;25.30;42.50;;;;;;5049906;28;20079;-56
2021/07/21 01:15:14;;;;;;;3.00;2.65;;;25.30;42.50;;;;;;5050163;28;20389;-59
2021/07/21 01:17:54;;;;;;;2.67;2.40;;;25.30;42.50;;;;;;5028668;28;20047;-55
2021/07/21 01:20:47;;;;;;;2.72;2.17;;;25.20;42.60;;;;;;5032016;28;20025;-60
2021/07/21 01:23:26;;;;;;;3.47;2.92;;;25.20;42.60;;;;;;5048698;28;20448;-58
2021/07/21 01:26:11;;;;;;;3.20;2.63;;;25.20;42.70;;;;;;5029444;28;20025;-58
2021/07/21 01:28:44;;;;;;;2.85;2.50;;;25.20;42.70;;;;;;5029593;28;20106;-59
2021/07/21 01:31:16;;;;;;;3.13;2.50;;;25.20;42.70;;;;;;5031426;28;20095;-57
2021/07/21 01:33:45;;;;;;;3.40;2.72;;;25.20;42.80;;;;;;5029000;28;20108;-59
2021/07/21 01:36:23;;;;;;;3.22;2.50;;;25.10;42.80;;;;;;5030322;28;20040;-58
2021/07/21 01:38:54;;;;;;;2.67;2.40;;;25.10;42.80;;;;;;5031138;28;20053;-59
2021/07/21 01:41:21;;;;;;;3.33;2.58;;;25.10;42.80;;;;;;5046036;28;20029;-58
2021/07/21 01:43:54;;;;;;;2.80;2.42;;;25.10;42.90;;;;;;5027680;28;20033;-60
2021/07/21 01:46:27;;;;;;;3.05;2.65;;;25.10;42.90;;;;;;5046258;28;20024;-59
2021/07/21 01:48:56;;;;;;;3.58;2.67;;;25.10;42.90;;;;;;5050228;28;20041;-58
2021/07/21 01:51:26;;;;;;;2.95;2.47;;;25.10;42.90;;;;;;5030401;28;20028;-57
2021/07/21 01:53:54;;;;;;;3.05;2.50;;;25.10;42.90;;;;;;5031020;28;20103;-56
2021/07/21 01:56:25;;;;;;;3.08;2.70;;;25.10;42.90;;;;;;5052369;28;20021;-57
2021/07/21 01:58:55;;;;;;;4.05;3.10;;;25.10;42.90;;;;;;5012766;28;20025;-59
2021/07/21 02:01:32;;;;;;;2.95;2.60;;;25.10;42.90;;;;;;5032685;28;20167;-57
2021/07/21 02:04:03;;;;;;;3.20;2.78;;;25.00;42.90;;;;;;5032869;28;20025;-58
2021/07/21 02:06:35;;;;;;;2.88;2.47;;;25.00;42.90;;;;;;5051783;28;20051;-57
2021/07/21 02:09:05;;;;;;;3.55;2.60;;;25.00;42.90;;;;;;5032015;28;20029;-60
2021/07/21 02:11:32;;;;;;;3.22;2.70;;;25.10;42.90;;;;;;5036179;28;20474;-56
2021/07/21 02:14:04;;;;;;;2.55;2.35;;;25.00;42.90;;;;;;5036049;28;20115;-59
2021/07/21 02:16:58;;;;;;;2.72;2.50;;;25.00;42.90;;;;;;5044885;28;20044;-57
2021/07/21 02:19:29;;;;;;;2.97;2.30;;;25.00;42.90;;;;;;5035937;28;20025;-57
2021/07/21 02:22:15;;;;;;;3.67;2.70;;;25.00;42.90;;;;;;5033068;28;20029;-59
2021/07/21 02:24:48;;;;;;;3.10;2.60;;;25.00;43.00;;;;;;5035711;28;20055;-58
2021/07/21 02:27:23;;;;;;;2.78;2.40;;;25.00;43.00;;;;;;5031533;28;20045;-58
2021/07/21 02:29:53;;;;;;;2.67;2.33;;;25.00;43.00;;;;;;5031093;28;20029;-54
2021/07/21 02:32:35;;;;;;;2.83;2.35;;;24.90;43.00;;;;;;5054609;28;20025;-58
2021/07/21 02:35:02;;;;;;;3.42;2.30;;;25.00;43.00;;;;;;5036604;28;20100;-58
2021/07/21 02:37:30;;;;;;;4.03;2.78;;;24.90;43.10;;;;;;5034699;28;20021;-59
2021/07/21 02:39:56;;;;;;;3.10;2.78;;;24.90;43.10;;;;;;5035560;28;20029;-54
2021/07/21 02:42:22;;;;;;;2.75;2.50;;;24.90;43.10;;;;;;5034005;28;20037;-56
2021/07/21 02:44:50;;;;;;;3.22;2.60;;;24.90;43.20;;;;;;5051227;28;20057;-58
2021/07/21 02:47:19;;;;;;;3.17;2.72;;;24.90;43.20;;;;;;5034971;28;20040;-55
2021/07/21 02:49:51;;;;;;;3.33;2.83;;;24.90;43.20;;;;;;5031312;28;20021;-56
2021/07/21 02:52:52;;;;;;;3.45;2.72;;;24.90;43.30;;;;;;5051648;28;20029;-55
2021/07/21 02:55:32;;;;;;;3.47;2.80;;;24.90;43.30;;;;;;5018007;28;20445;-59
2021/07/21 02:58:39;;;;;;;3.40;2.85;;;24.90;43.40;;;;;;5050352;28;20037;-60
2021/07/21 03:01:06;;;;;;;;;;;24.90;44.00;;;;;;5035239;28;20045;-59
2021/07/21 03:03:37;;;;;;;2.90;2.53;;;24.80;43.40;;;;;;5050644;28;19928;-56
2021/07/21 03:06:07;;;;;;;3.63;2.67;;;24.80;43.50;;;;;;5035603;28;20045;-55
2021/07/21 03:08:53;;;;;;;3.45;2.75;;;24.80;43.60;;;;;;5046688;28;20475;-57
2021/07/21 03:11:24;;;;;;;3.15;2.72;;;24.80;43.60;;;;;;5035883;28;20024;-57
2021/07/21 03:13:54;;;;;;;3.22;2.70;;;24.80;43.70;;;;;;5035464;28;20035;-60
2021/07/21 03:16:29;;;;;;;3.35;2.90;;;24.80;43.70;;;;;;5035290;28;20025;-58
2021/07/21 03:19:02;;;;;;;3.08;2.58;;;24.80;43.80;;;;;;5035110;28;20025;-57
2021/07/21 03:21:37;;;;;;;3.60;2.78;;;24.80;43.80;;;;;;5031996;28;20099;-59
2021/07/21 03:24:11;;;;;;;3.30;2.80;;;24.80;43.90;;;;;;5031826;28;20033;-57
2021/07/21 03:26:51;;;;;;;3.45;2.70;;;24.80;43.90;;;;;;5032626;28;20036;-57
2021/07/21 03:29:22;;;;;;;3.83;3.00;;;24.80;44.00;;;;;;5035143;28;20032;-58
2021/07/21 03:31:52;;;;;;;3.10;2.80;;;24.80;44.00;;;;;;5035104;28;20025;-58
2021/07/21 03:34:20;;;;;;;3.28;2.67;;;24.80;44.10;;;;;;5030991;28;20052;-60
2021/07/21 03:36:56;;;;;;;2.70;2.45;;;24.80;44.10;;;;;;5051613;28;20507;-58
2021/07/21 03:39:33;;;;;;;4.20;2.95;;;24.80;44.20;;;;;;5050280;28;20033;-52
2021/07/21 03:42:15;;;;;;;2.90;2.60;;;24.80;44.20;;;;;;5030530;28;20035;-58
2021/07/21 03:44:44;;;;;;;3.05;2.63;;;24.70;44.20;;;;;;5051359;28;20021;-58
2021/07/21 03:47:15;;;;;;;3.85;2.97;;;24.80;44.40;;;;;;5028981;28;20447;-59
2021/07/21 03:49:42;;;;;;;3.42;3.03;;;24.80;44.40;;;;;;5030754;28;20036;-60
2021/07/21 03:52:13;;;;;;;3.47;2.70;;;24.70;44.40;;;;;;5033776;28;20025;-60
2021/07/21 03:54:40;;;;;;;3.50;2.97;;;24.70;44.40;;;;;;5052205;28;20363;-55
2021/07/21 03:57:26;;;;;;;3.60;3.05;;;24.70;44.40;;;;;;5031724;28;20029;-58
2021/07/21 03:59:53;;;;;;;4.07;3.00;;;24.70;44.50;;;;;;5033914;28;20036;-55
2021/07/21 04:02:21;;;;;;;3.42;2.90;;;24.70;44.50;;;;;;5034539;28;20040;-57
2021/07/21 04:04:48;;;;;;;3.75;3.15;;;24.70;44.60;;;;;;5050745;28;20064;-59
2021/07/21 04:07:19;;;;;;;3.70;3.00;;;24.70;44.60;;;;;;5051161;28;20488;-57
2021/07/21 04:10:06;;;;;;;3.20;2.58;;;24.70;44.60;;;;;;5033637;28;20108;-57
2021/07/21 04:12:45;;;;;;;3.40;2.77;;;24.70;44.60;;;;;;5030777;28;20028;-58
2021/07/21 04:15:15;;;;;;;3.00;2.70;;;24.70;44.70;;;;;;5052083;28;20029;-52
2021/07/21 04:17:50;;;;;;;3.95;2.92;;;24.70;44.70;;;;;;5034488;28;20021;-57
2021/07/21 04:20:23;;;;;;;3.65;3.20;;;24.70;44.80;;;;;;5031328;28;20021;-57
2021/07/21 04:22:51;;;;;;;4.28;3.20;;;24.70;44.80;;;;;;5051200;28;20103;-56
2021/07/21 04:25:20;;;;;;;4.00;3.10;;;24.70;44.80;;;;;;5049413;28;20060;-55
2021/07/21 04:27:50;;;;;;;3.28;2.85;;;24.70;44.90;;;;;;5033279;28;20033;-58
2021/07/21 04:30:20;;;;;;;3.38;2.75;;;24.70;44.90;;;;;;5018784;28;20464;-58
2021/07/21 04:32:49;;;;;;;3.05;2.58;;;24.70;45.00;;;;;;5032251;28;20028;-55
2021/07/21 04:35:19;;;;;;;4.10;2.83;;;24.70;45.00;;;;;;5033303;28;20032;-57
2021/07/21 04:37:54;;;;;;;3.75;3.05;;;24.70;45.00;;;;;;5031935;28;20032;-60
2021/07/21 04:40:26;;;;;;;3.17;2.63;;;24.70;45.10;;;;;;5030394;28;20473;-55
2021/07/21 04:43:13;;;;;;;3.80;2.85;;;24.70;45.10;;;;;;5048370;28;20052;-57
2021/07/21 04:45:49;;;;;;;3.63;2.92;;;24.70;45.20;;;;;;5033905;28;20335;-56
2021/07/21 04:48:17;;;;;;;4.18;3.10;;;24.70;45.20;;;;;;5047389;28;20090;-58
2021/07/21 04:50:55;;;;;;;3.80;3.05;;;24.70;45.30;;;;;;5033203;28;20348;-57
2021/07/21 04:53:21;;;;;;;4.47;3.05;;;24.70;45.30;;;;;;5036458;28;20040;-58
2021/07/21 04:55:47;;;;;;;3.50;3.20;;;24.70;45.40;;;;;;5026898;28;20036;-58
2021/07/21 04:58:15;;;;;;;3.50;2.88;;;24.70;45.40;;;;;;5032174;28;20033;-55
2021/07/21 05:00:43;;;;;;;3.35;2.65;;;24.70;45.40;;;;;;5033243;28;20036;-59
2021/07/21 05:03:14;;;;;;;3.65;3.08;;;24.70;45.50;;;;;;5030685;28;20456;-57
2021/07/21 05:05:47;;;;;;;4.22;3.15;;;24.70;45.50;;;;;;5027952;28;20511;-55
2021/07/21 05:08:15;;;;;;;3.35;2.83;;;24.70;45.60;;;;;;5031541;28;20033;-58
2021/07/21 05:11:13;;;;;;;3.50;2.97;;;24.70;45.60;;;;;;5031837;28;20017;-57
2021/07/21 05:13:41;;;;;;;4.32;3.40;;;24.70;45.60;;;;;;5031058;28;20028;-58
2021/07/21 05:16:11;;;;;;;3.55;3.08;;;24.70;45.70;;;;;;5033695;28;20354;-57
2021/07/21 05:18:37;;;;;;;4.68;2.90;;;24.70;45.70;;;;;;5048982;28;20064;-59
2021/07/21 05:21:09;;;;;;;3.92;3.15;;;24.70;45.80;;;;;;5034020;28;20029;-57
2021/07/21 05:23:36;;;;;;;3.95;3.20;;;24.60;45.70;;;;;;5033012;28;20044;-57
2021/07/21 05:26:04;;;;;;;3.90;3.10;;;24.60;45.80;;;;;;5030296;28;20025;-58
2021/07/21 05:28:42;;;;;;;3.42;3.03;;;24.60;45.80;;;;;;5032629;28;20185;-56
2021/07/21 05:31:15;;;;;;;3.47;2.95;;;24.70;45.90;;;;;;5032762;28;20025;-54
2021/07/21 05:34:10;;;;;;;4.15;2.90;;;24.60;45.90;;;;;;5036193;28;20047;-59
2021/07/21 05:36:38;;;;;;;3.33;2.90;;;24.60;46.00;;;;;;5032403;28;20120;-56
2021/07/21 05:39:09;;;;;;;4.20;3.22;;;24.70;46.00;;;;;;5030464;28;21212;-58
2021/07/21 05:41:34;;;;;;;3.88;2.97;;;24.70;46.10;;;;;;5044260;28;20037;-53
2021/07/21 05:44:02;;;;;;;3.47;3.03;;;24.70;46.20;;;;;;5030891;28;20128;-55
2021/07/21 05:46:28;;;;;;;3.55;3.17;;;24.70;46.20;;;;;;5048952;28;20060;-55
2021/07/21 05:48:54;;;;;;;3.55;3.03;;;24.70;46.20;;;;;;5030093;28;20079;-58
2021/07/21 05:51:32;;;;;;;4.22;3.30;;;24.70;46.30;;;;;;5028197;28;20040;-51
2021/07/21 05:54:06;;;;;;;;;;;24.70;46.30;;;;;;5029205;28;20025;-57
2021/07/21 05:56:33;;;;;;;3.28;2.83;;;24.60;46.20;;;;;;5032725;28;19928;-55
2021/07/21 05:59:00;;;;;;;3.72;2.90;;;24.60;46.30;;;;;;5030453;28;20044;-57
2021/07/21 06:01:28;;;;;;;3.25;2.90;;;24.60;46.30;;;;;;5046895;28;20029;-56
2021/07/21 06:03:55;;;;;;;3.47;3.00;;;24.70;46.40;;;;;;5032056;28;20024;-59
2021/07/21 06:06:43;;;;;;;4.25;3.25;;;24.70;46.40;;;;;;4996587;28;20048;-59
2021/07/21 06:09:12;;;;;;;3.45;3.15;;;24.70;46.50;;;;;;5011246;28;20433;-58
2021/07/21 06:11:56;;;;;;;3.65;2.95;;;24.70;46.50;;;;;;5009156;28;20346;-57
2021/07/21 06:14:22;;;;;;;3.60;3.05;;;24.60;46.50;;;;;;5010946;28;20044;-58
2021/07/21 06:16:50;;;;;;;3.90;3.20;;;24.70;46.70;;;;;;5009617;28;20038;-58
2021/07/21 06:19:16;;;;;;;4.18;3.00;;;24.70;46.70;;;;;;5002969;28;20045;-60
2021/07/21 06:21:42;;;;;;;3.63;3.05;;;24.70;46.80;;;;;;5007503;28;20025;-58
2021/07/21 06:24:27;;;;;;;3.80;3.22;;;24.70;46.80;;;;;;5008972;28;20052;-59
2021/07/21 06:26:55;;;;;;;3.75;3.30;;;24.60;46.80;;;;;;5009113;28;20026;-59
2021/07/21 06:29:44;;;;;;;3.38;3.00;;;24.70;46.90;;;;;;5011624;28;20037;-57
2021/07/21 06:32:09;;;;;;;3.88;3.28;;;24.70;46.90;;;;;;5010641;28;20549;-58
2021/07/21 06:34:37;;;;;;;3.42;3.00;;;24.70;47.00;;;;;;5009305;28;20040;-62
2021/07/21 06:37:12;;;;;;;3.40;2.95;;;24.60;47.00;;;;;;5003219;28;20031;-60
2021/07/21 06:39:38;;;;;;;4.18;3.47;;;24.70;47.10;;;;;;5009509;28;20364;-58
2021/07/21 06:42:04;;;;;;;4.00;3.25;;;24.70;47.10;;;;;;5009760;28;20434;-61
2021/07/21 06:44:32;;;;;;;3.75;3.35;;;24.70;47.10;;;;;;5008922;28;20060;-58
2021/07/21 06:47:21;;;;;;;4.30;3.30;;;24.70;47.20;;;;;;5009150;28;20053;-60
2021/07/21 06:49:51;;;;;;;4.68;3.40;;;24.70;47.20;;;;;;5014440;28;20401;-59
2021/07/21 06:52:18;;;;;;;4.43;3.33;;;24.70;47.30;;;;;;5015119;28;20069;-60
2021/07/21 06:54:46;;;;;;;3.15;2.83;;;24.70;47.30;;;;;;5012145;28;20029;-57
2021/07/21 06:57:27;;;;;;;4.00;3.05;;;24.70;47.30;;;;;;5015101;28;20449;-63
2021/07/21 07:00:11;;;;;;;4.47;3.33;;;24.70;47.40;;;;;;5015431;28;20034;-60
2021/07/21 07:02:58;;;;;;;3.17;2.88;;;24.70;47.40;;;;;;4989541;28;20477;-60
2021/07/21 07:05:33;;;;;;;4.13;3.05;;;24.70;47.40;;;;;;5017352;28;20046;-59
2021/07/21 07:08:34;;;;;;;3.85;2.92;;;24.70;47.50;;;;;;4972628;28;20059;-59
2021/07/21 07:11:18;;;;;;;3.33;2.83;;;24.70;47.50;;;;;;5047420;28;20106;-59
2021/07/21 07:13:44;;;;;;;3.45;2.95;;;24.70;47.50;;;;;;5054231;28;20485;-57
2021/07/21 07:16:13;;;;;;;3.40;2.80;;;24.70;47.50;;;;;;5036382;28;20146;-57
2021/07/21 07:18:38;;;;;;;4.20;3.10;;;24.80;47.50;;;;;;5053744;28;20136;-61
2021/07/21 07:21:04;;;;;;;3.45;2.90;;;24.70;47.50;;;;;;5052333;28;20122;-56
2021/07/21 07:23:30;;;;;;;3.58;3.05;;;24.70;47.50;;;;;;5052898;28;20029;-61
2021/07/21 07:25:56;;;;;;;4.18;3.45;;;24.70;47.50;;;;;;5053119;28;20520;-58
2021/07/21 07:28:22;;;;;;;3.88;3.47;;;24.80;47.50;;;;;;5053540;28;20051;-57
2021/07/21 07:30:48;;;;;;;3.15;2.85;;;24.80;47.50;;;;;;5053079;28;20033;-57
2021/07/21 07:33:14;;;;;;;3.97;3.38;;;24.80;47.50;;;;;;5053695;28;20163;-58
2021/07/21 07:35:40;;;;;;;3.80;3.10;;;24.80;47.50;;;;;;5053089;28;20434;-58
2021/07/21 07:38:11;;;;;;;3.85;3.15;;;24.80;47.50;;;;;;5054134;28;20043;-56
2021/07/21 07:40:39;;;;;;;3.85;2.90;;;24.80;47.60;;;;;;5054090;28;20106;-61
2021/07/21 07:43:05;;;;;;;4.28;3.03;;;24.80;47.60;;;;;;5054346;28;20029;-56
2021/07/21 07:45:30;;;;;;;4.25;3.50;;;24.80;47.60;;;;;;5054047;28;20035;-57
2021/07/21 07:47:57;;;;;;;4.93;3.50;;;24.80;47.60;;;;;;5053549;28;20044;-57
2021/07/21 07:50:23;;;;;;;3.97;3.35;;;24.80;47.50;;;;;;5052484;28;20032;-57
2021/07/21 07:52:49;;;;;;;4.72;3.00;;;24.80;47.60;;;;;;5053856;28;20086;-59
2021/07/21 07:55:15;;;;;;;3.25;2.88;;;24.80;47.50;;;;;;5036099;28;20021;-58
2021/07/21 07:57:41;;;;;;;3.53;3.20;;;24.90;47.60;;;;;;5053623;28;20037;-56
2021/07/21 08:00:09;;;;;;;5.20;3.40;;;24.90;47.60;;;;;;5054179;28;20033;-60
2021/07/21 08:02:39;;;;;;;3.95;2.97;;;24.90;47.50;;;;;;5051502;28;20040;-60
2021/07/21 08:05:05;;;;;;;4.03;3.63;;;24.80;47.50;;;;;;5053660;28;20117;-58
2021/07/21 08:07:34;;;;;;;3.75;3.35;;;24.90;47.50;;;;;;5053183;28;20114;-59
2021/07/21 08:10:00;;;;;;;4.00;2.95;;;24.90;47.50;;;;;;5053361;28;20041;-60
2021/07/21 08:12:26;;;;;;;3.42;3.13;;;24.90;47.50;;;;;;5053886;28;20033;-58
2021/07/21 08:14:52;;;;;;;4.45;2.83;;;24.90;47.50;;;;;;5054095;28;20024;-52
2021/07/21 08:17:18;;;;;;;3.00;2.70;;;24.90;47.40;;;;;;5053462;28;20056;-56
2021/07/21 08:19:44;;;;;;;3.40;3.00;;;25.00;47.50;;;;;;5053728;28;20083;-58
2021/07/21 08:22:14;;;;;;;3.40;2.90;;;25.00;47.50;;;;;;5053104;28;20666;-59
2021/07/21 08:24:40;;;;;;;3.83;3.20;;;25.00;47.40;;;;;;5034599;28;20032;-59
2021/07/21 08:27:05;;;;;;;3.17;2.83;;;25.00;47.40;;;;;;5053449;28;20412;-56
2021/07/21 08:29:31;;;;;;;3.65;2.72;;;25.00;47.40;;;;;;5053359;28;20120;-58
2021/07/21 08:31:57;;;;;;;4.22;3.58;;;25.00;47.40;;;;;;5053440;28;20025;-57
2021/07/21 08:34:23;;;;;;;4.32;3.08;;;25.00;47.40;;;;;;5049044;28;20476;-59
2021/07/21 08:36:48;;;;;;;3.60;3.30;;;25.00;47.40;;;;;;5053406;28;20024;-59
2021/07/21 08:39:14;;;;;;;4.28;2.97;;;25.00;47.40;;;;;;5053343;28;20060;-60
2021/07/21 08:41:41;;;;;;;3.90;3.22;;;25.00;47.50;;;;;;5052441;28;20033;-58
2021/07/21 08:44:07;;;;;;;4.00;2.70;;;25.00;47.40;;;;;;5050177;28;20356;-58
2021/07/21 08:46:37;;;;;;;3.47;3.13;;;25.00;47.40;;;;;;5052889;28;20021;-59
2021/07/21 08:49:07;;;;;;;4.13;3.22;;;25.10;47.50;;;;;;5052420;28;20099;-56
2021/07/21 08:51:34;;;;;;;6.30;3.72;;;25.10;47.50;;;;;;5052894;28;20048;-61
2021/07/21 08:54:00;;;;;;;3.58;2.97;;;25.10;47.50;;;;;;5050366;28;20432;-56
2021/07/21 08:56:27;;;;;;;4.20;3.05;;;25.10;47.40;;;;;;5053040;28;20040;-61
2021/07/21 08:58:53;;;;;;;3.70;2.97;;;25.10;47.40;;;;;;5053399;28;20424;-58
2021/07/21 09:01:20;;;;;;;4.13;3.22;;;25.10;47.40;;;;;;5052524;28;20021;-62
2021/07/21 09:03:46;;;;;;;3.78;3.13;;;25.10;47.40;;;;;;5052253;28;20398;-59
2021/07/21 09:06:13;;;;;;;4.43;3.17;;;25.10;47.30;;;;;;5051236;28;20383;-59
2021/07/21 09:08:39;;;;;;;3.20;2.70;;;25.10;47.30;;;;;;5051175;28;20041;-59
2021/07/21 09:11:05;;;;;;;2.88;2.45;;;25.10;47.30;;;;;;5053291;28;20033;-56
2021/07/21 09:13:34;;;;;;;3.60;2.83;;;25.20;47.40;;;;;;5052402;28;20083;-58
2021/07/21 09:16:03;;;;;;;3.85;3.00;;;25.20;47.30;;;;;;5052688;28;20021;-62
2021/07/21 09:18:31;;;;;;;3.67;2.75;;;25.20;47.20;;;;;;5048708;28;20346;-57
2021/07/21 09:20:57;;;;;;;4.32;2.90;;;25.30;47.20;;;;;;5047578;28;20106;-62
2021/07/21 09:23:44;;;;;;;2.97;2.50;;;25.30;47.00;;;;;;5050202;28;20317;-61
2021/07/21 09:26:12;;;;;;;2.92;2.53;;;25.30;46.70;;;;;;5047510;28;20322;-61
2021/07/21 09:28:43;;;;;;;3.35;2.63;;;25.40;46.50;;;;;;5048000;28;20036;-63
2021/07/21 09:31:14;;;;;;;3.38;2.47;;;25.40;46.10;;;;;;5049871;28;20103;-62
2021/07/21 09:33:44;;;;;;;2.97;2.50;;;25.40;45.80;;;;;;5051805;28;20039;-57
2021/07/21 09:36:18;;;;;;;2.80;2.28;;;25.40;45.50;;;;;;5052712;28;20033;-61
2021/07/21 09:38:46;;;;;;;2.80;2.33;;;25.50;45.20;;;;;;5052616;28;20094;-56
2021/07/21 09:41:16;;;;;;;3.35;2.63;;;25.50;45.10;;;;;;5052323;28;20033;-59
2021/07/21 09:43:42;;;;;;;2.50;2.20;;;25.50;45.00;;;;;;5050419;28;20017;-60
2021/07/21 09:46:13;;;;;;;3.03;2.70;;;25.50;44.90;;;;;;5052592;28;20049;-59
2021/07/21 09:48:42;;;;;;;2.17;1.95;;;25.60;44.90;;;;;;5052448;28;20162;-60
2021/07/21 09:51:09;;;;;;;2.90;2.38;;;25.60;44.80;;;;;;5052246;28;20043;-61
2021/07/21 09:53:46;;;;;;;3.22;2.47;;;25.60;44.80;;;;;;5052557;28;20031;-60
2021/07/21 09:56:13;;;;;;;3.00;2.45;;;25.60;44.70;;;;;;5033791;28;20037;-58
2021/07/21 09:58:40;;;;;;;2.75;2.30;;;25.60;44.70;;;;;;5031785;28;20336;-59
2021/07/21 10:01:06;;;;;;;3.13;2.55;;;25.60;44.60;;;;;;5051974;28;20044;-61
2021/07/21 10:03:35;;;;;;;2.92;2.40;;;25.70;44.60;;;;;;5052366;28;20047;-61
2021/07/21 10:06:11;;;;;;;2.70;2.20;;;25.70;44.50;;;;;;5051831;28;20346;-60
2021/07/21 10:08:44;;;;;;;2.90;2.55;;;25.70;44.40;;;;;;5033923;28;20095;-61
2021/07/21 10:11:21;;;;;;;2.67;2.40;;;25.80;44.40;;;;;;5052102;28;20108;-61
2021/07/21 10:13:49;;;;;;;3.05;2.22;;;25.80;44.30;;;;;;5051549;28;20471;-59
2021/07/21 10:16:32;;;;;;;3.10;2.33;;;25.70;44.20;;;;;;5052729;28;20036;-59
2021/07/21 10:19:06;;;;;;;3.05;2.40;;;25.80;44.10;;;;;;5054989;28;20068;-64
2021/07/21 10:21:33;;;;;;;2.38;1.98;;;25.80;44.00;;;;;;5053586;28;20117;-62
2021/07/21 10:23:59;;;;;;;2.78;2.08;;;25.80;44.00;;;;;;5053689;28;20143;-59
2021/07/21 10:26:27;;;;;;;2.85;2.30;;;25.90;44.00;;;;;;5055693;28;20033;-60
2021/07/21 10:28:54;;;;;;;2.83;2.50;;;25.90;43.80;;;;;;5055731;28;20327;-62
2021/07/21 10:31:20;;;;;;;3.13;2.40;;;25.90;43.70;;;;;;5056262;28;20025;-59
2021/07/21 10:33:47;;;;;;;3.30;2.70;;;25.90;43.60;;;;;;5054234;28;20040;-58
2021/07/21 10:36:13;;;;;;;3.08;2.42;;;25.90;43.50;;;;;;5055019;28;20017;-60
2021/07/21 10:38:39;;;;;;;2.67;2.28;;;25.90;43.50;;;;;;5054409;28;20487;-61
2021/07/21 10:41:05;;;;;;;2.67;2.30;;;25.90;43.40;;;;;;5055239;28;20322;-57
2021/07/21 10:43:31;;;;;;;3.55;2.67;;;25.90;43.30;;;;;;5055283;28;20048;-57
2021/07/21 10:45:57;;;;;;;3.17;2.88;;;25.90;43.20;;;;;;5055383;28;20407;-61
2021/07/21 10:48:42;;;;;;;3.30;2.85;;;26.00;43.00;;;;;;5054797;28;20032;-60
2021/07/21 10:51:41;;;;;;;3.08;2.70;;;26.00;42.70;;;;;;5053144;28;20032;-60
2021/07/21 10:54:27;;;;;;;3.03;2.63;;;26.00;42.60;;;;;;5054024;28;20512;-59
2021/07/21 10:59:41;;;;;;;3.63;2.83;;;26.00;42.60;;;;;;5054810;28;20029;-56
2021/07/21 11:02:08;;;;;;;2.67;2.47;;;26.10;42.50;;;;;;5054258;28;20108;-60
2021/07/21 11:04:45;;;;;;;3.45;2.80;;;26.10;43.10;;;;;;5054576;28;20025;-59
2021/07/21 11:07:16;;;;;;;4.05;2.83;;;26.10;42.30;;;;;;5055209;28;20060;-62
2021/07/21 11:09:48;;;;;;;3.38;2.70;;;26.10;42.40;;;;;;5054651;28;20032;-58
2021/07/21 11:12:32;;;;;;;5.57;2.30;;;26.10;42.40;;;;;;5054962;28;20033;-59
2021/07/21 11:14:58;;;;;;;3.85;2.72;;;26.20;42.40;;;;;;5052643;28;20040;-60
2021/07/21 11:17:24;;;;;;;3.33;2.78;;;26.20;42.50;;;;;;5055228;28;20029;-59
2021/07/21 11:19:51;;;;;;;3.33;2.72;;;26.20;42.40;;;;;;5054778;28;20016;-60
2021/07/21 11:22:25;;;;;;;3.50;2.60;;;26.30;42.50;;;;;;5053976;28;20025;-55
2021/07/21 11:25:11;;;;;;;4.15;3.33;;;26.30;43.00;;;;;;5052409;28;20029;-58
2021/07/21 11:27:45;;;;;;;3.47;3.08;;;26.30;42.30;;;;;;5053988;28;20514;-58
2021/07/21 11:30:35;;;;;;;4.65;2.90;;;26.30;42.40;;;;;;5054294;28;20029;-59
2021/07/21 11:33:39;;;;;;;3.05;2.75;;;26.40;42.40;;;;;;5054249;28;20024;-60
2021/07/21 11:36:05;;;;;;;3.20;2.90;;;26.40;42.30;;;;;;5052510;28;20029;-58
2021/07/21 11:38:52;;;;;;;4.53;3.20;;;26.40;42.40;;;;;;5052884;28;20114;-58
2021/07/21 11:41:47;;;;;;;3.03;2.60;;;26.40;42.50;;;;;;5050221;28;20036;-60
2021/07/21 11:44:22;;;;;;;3.65;3.05;;;26.40;42.50;;;;;;5035518;28;20088;-61
2021/07/21 11:46:49;;;;;;;3.10;2.80;;;26.40;42.70;;;;;;5050609;28;20432;-60
2021/07/21 11:49:19;;;;;;;4.07;2.95;;;26.40;42.70;;;;;;5054025;28;20428;-62
2021/07/21 11:51:53;;;;;;;4.13;3.47;;;26.40;42.70;;;;;;5053117;28;20041;-63
2021/07/21 11:54:28;;;;;;;3.65;2.75;;;26.50;42.80;;;;;;5054817;28;20114;-58
2021/07/21 11:56:55;;;;;;;3.53;3.05;;;26.50;42.70;;;;;;5054534;28;20329;-60
2021/07/21 11:59:29;;;;;;;4.82;3.03;;;26.50;42.70;;;;;;5036944;28;20075;-60
2021/07/21 12:02:14;;;;;;;3.80;3.33;;;26.50;42.50;;;;;;5055462;28;20040;-60
2021/07/21 12:04:43;;;;;;;3.95;3.35;;;26.50;42.40;;;;;;5055005;28;20360;-60
2021/07/21 12:07:10;;;;;;;3.50;3.20;;;26.50;42.40;;;;;;5055278;28;20056;-60
2021/07/21 12:09:40;;;;;;;4.00;3.28;;;26.50;42.30;;;;;;5055445;28;20029;-60
2021/07/21 12:12:11;;;;;;;4.10;3.40;;;26.50;42.80;;;;;;5055534;28;20040;-60
2021/07/21 12:14:40;;;;;;;3.80;3.35;;;26.50;42.10;;;;;;5055354;28;20115;-61
2021/07/21 12:17:12;;;;;;;3.60;3.15;;;26.50;42.00;;;;;;5052482;28;20041;-61
2021/07/21 12:19:39;;;;;;;4.22;3.00;;;26.60;42.00;;;;;;5044109;28;20064;-60
2021/07/21 12:22:07;;;;;;;3.83;3.38;;;26.50;41.90;;;;;;5054974;28;20025;-60
2021/07/21 12:24:35;;;;;;;3.85;3.15;;;26.60;41.90;;;;;;5054588;28;20455;-60
2021/07/21 12:27:02;;;;;;;3.78;3.38;;;26.60;41.90;;;;;;5036287;28;20407;-61
2021/07/21 12:29:28;;;;;;;3.78;3.35;;;26.60;41.80;;;;;;5054829;28;20029;-59
2021/07/21 12:32:03;;;;;;;3.65;3.35;;;26.60;41.90;;;;;;5054967;28;20112;-61
2021/07/21 12:34:29;;;;;;;3.60;3.20;;;26.60;42.00;;;;;;5036523;28;20029;-59
2021/07/21 12:36:54;;;;;;;3.83;3.45;;;26.60;42.10;;;;;;5054957;28;20333;-60
2021/07/21 12:39:28;;;;;;;3.22;2.83;;;26.70;42.20;;;;;;5054049;28;20095;-59
2021/07/21 12:41:54;;;;;;;3.45;3.10;;;26.60;42.10;;;;;;5044033;28;20038;-59
2021/07/21 12:44:31;;;;;;;4.05;3.45;;;26.60;42.00;;;;;;5053174;28;20044;-59
2021/07/21 12:47:33;;;;;;;3.72;3.30;;;26.60;41.90;;;;;;5053396;28;20440;-59
2021/07/21 12:50:07;;;;;;;3.72;3.17;;;26.60;42.00;;;;;;4953095;29;20047;-59
2021/07/21 12:52:58;;;;;;;3.60;3.13;;;26.60;42.00;;;;;;5022454;28;20045;-59
2021/07/21 12:55:33;;;;;;;3.53;3.20;;;26.70;42.00;;;;;;5048595;28;20045;-60
2021/07/21 12:58:01;;;;;;;3.60;3.15;;;26.60;41.90;;;;;;5053444;28;20044;-60
2021/07/21 13:00:31;;;;;;;3.35;3.05;;;26.60;41.90;;;;;;5035374;28;20040;-60
2021/07/21 13:03:01;;;;;;;3.70;3.30;;;26.60;41.80;;;;;;5053557;28;20033;-59
2021/07/21 13:05:29;;;;;;;5.13;3.63;;;26.70;41.80;;;;;;5052583;28;20037;-61
2021/07/21 13:08:21;;;;;;;3.78;2.80;;;26.60;41.70;;;;;;5050223;28;20079;-58
2021/07/21 13:10:59;;;;;;;3.40;2.92;;;26.70;41.60;;;;;;5027954;28;20346;-60
2021/07/21 13:13:27;;;;;;;3.20;2.90;;;26.60;41.60;;;;;;5052535;28;20032;-61
2021/07/21 13:15:58;;;;;;;4.13;3.28;;;26.60;41.50;;;;;;5033800;28;20397;-59